sensor_id;sensor_type;location;lat;lon;timestamp;P1;durP1;ratioP1;P2;durP2;ratioP2
25073;SDS011;13066;52.042;5.648;2023-09-19T00:00:40;12.35;;;2.67;;
25073;SDS011;13066;52.042;5.648;2023-09-19T00:03:09;6.90;;;2.25;;
25073;SDS011;13066;52.042;5.648;2023-09-19T00:05:39;9.13;;;2.03;;
25073;SDS011;13066;52.042;5.648;2023-09-19T00:08:10;12.73;;;2.38;;
25073;SDS011;13066;52.042;5.648;2023-09-19T00:10:40;7.63;;;2.70;;
25073;SDS011;13066;52.042;5.648;2023-09-19T00:13:09;10.25;;;2.17;;
25073;SDS011;13066;52.042;5.648;2023-09-19T00:15:43;8.77;;;2.25;;
25073;SDS011;13066;52.042;5.648;2023-09-19T00:18:16;5.88;;;2.40;;
25073;SDS011;13066;52.042;5.648;2023-09-19T00:20:45;8.05;;;2.45;;
25073;SDS011;13066;52.042;5.648;2023-09-19T00:23:14;9.88;;;2.30;;
25073;SDS011;13066;52.042;5.648;2023-09-19T00:25:42;7.82;;;2.65;;
25073;SDS011;13066;52.042;5.648;2023-09-19T00:28:10;8.10;;;2.58;;
25073;SDS011;13066;52.042;5.648;2023-09-19T00:30:38;7.82;;;2.17;;
25073;SDS011;13066;52.042;5.648;2023-09-19T00:33:07;15.93;;;2.63;;
25073;SDS011;13066;52.042;5.648;2023-09-19T00:35:38;12.98;;;2.47;;
25073;SDS011;13066;52.042;5.648;2023-09-19T00:38:05;11.30;;;2.53;;
25073;SDS011;13066;52.042;5.648;2023-09-19T00:40:34;10.82;;;2.60;;
25073;SDS011;13066;52.042;5.648;2023-09-19T00:43:04;6.85;;;2.20;;
25073;SDS011;13066;52.042;5.648;2023-09-19T00:45:32;12.75;;;2.15;;
25073;SDS011;13066;52.042;5.648;2023-09-19T00:48:00;9.93;;;2.38;;
25073;SDS011;13066;52.042;5.648;2023-09-19T00:50:38;10.77;;;2.53;;
25073;SDS011;13066;52.042;5.648;2023-09-19T00:53:10;13.65;;;2.70;;
25073;SDS011;13066;52.042;5.648;2023-09-19T00:55:41;10.32;;;2.40;;
25073;SDS011;13066;52.042;5.648;2023-09-19T00:58:10;10.45;;;2.97;;
25073;SDS011;13066;52.042;5.648;2023-09-19T01:00:38;12.80;;;2.63;;
25073;SDS011;13066;52.042;5.648;2023-09-19T01:03:11;9.93;;;2.50;;
25073;SDS011;13066;52.042;5.648;2023-09-19T01:05:41;9.55;;;2.45;;
25073;SDS011;13066;52.042;5.648;2023-09-19T01:08:10;16.02;;;2.88;;
25073;SDS011;13066;52.042;5.648;2023-09-19T01:10:39;8.98;;;2.83;;
25073;SDS011;13066;52.042;5.648;2023-09-19T01:13:13;12.50;;;2.25;;
25073;SDS011;13066;52.042;5.648;2023-09-19T01:15:51;14.48;;;2.67;;
25073;SDS011;13066;52.042;5.648;2023-09-19T01:18:27;14.88;;;2.53;;
25073;SDS011;13066;52.042;5.648;2023-09-19T01:21:03;12.63;;;2.67;;
25073;SDS011;13066;52.042;5.648;2023-09-19T01:23:38;10.80;;;3.33;;
25073;SDS011;13066;52.042;5.648;2023-09-19T01:26:30;16.50;;;3.03;;
25073;SDS011;13066;52.042;5.648;2023-09-19T01:29:13;15.57;;;3.17;;
25073;SDS011;13066;52.042;5.648;2023-09-19T01:31:51;15.63;;;3.10;;
25073;SDS011;13066;52.042;5.648;2023-09-19T01:34:21;13.43;;;3.30;;
25073;SDS011;13066;52.042;5.648;2023-09-19T01:36:49;11.02;;;2.88;;
25073;SDS011;13066;52.042;5.648;2023-09-19T01:39:16;18.95;;;3.40;;
25073;SDS011;13066;52.042;5.648;2023-09-19T01:41:51;17.52;;;3.53;;
25073;SDS011;13066;52.042;5.648;2023-09-19T01:44:25;16.70;;;3.03;;
25073;SDS011;13066;52.042;5.648;2023-09-19T01:46:59;16.88;;;3.22;;
25073;SDS011;13066;52.042;5.648;2023-09-19T01:49:33;18.67;;;3.17;;
25073;SDS011;13066;52.042;5.648;2023-09-19T01:52:08;18.90;;;3.50;;
25073;SDS011;13066;52.042;5.648;2023-09-19T01:54:40;18.92;;;3.30;;
25073;SDS011;13066;52.042;5.648;2023-09-19T01:57:14;16.30;;;3.70;;
25073;SDS011;13066;52.042;5.648;2023-09-19T01:59:48;20.95;;;3.00;;
25073;SDS011;13066;52.042;5.648;2023-09-19T02:02:20;23.00;;;4.03;;
25073;SDS011;13066;52.042;5.648;2023-09-19T02:04:50;16.30;;;2.95;;
25073;SDS011;13066;52.042;5.648;2023-09-19T02:07:18;13.30;;;3.13;;
25073;SDS011;13066;52.042;5.648;2023-09-19T02:09:48;14.43;;;3.00;;
25073;SDS011;13066;52.042;5.648;2023-09-19T02:12:15;13.60;;;3.22;;
25073;SDS011;13066;52.042;5.648;2023-09-19T02:14:43;14.95;;;3.05;;
25073;SDS011;13066;52.042;5.648;2023-09-19T02:17:11;20.98;;;3.75;;
25073;SDS011;13066;52.042;5.648;2023-09-19T02:19:40;21.42;;;3.70;;
25073;SDS011;13066;52.042;5.648;2023-09-19T02:22:08;13.95;;;3.45;;
25073;SDS011;13066;52.042;5.648;2023-09-19T02:24:37;23.13;;;3.50;;
25073;SDS011;13066;52.042;5.648;2023-09-19T02:27:05;15.77;;;3.10;;
25073;SDS011;13066;52.042;5.648;2023-09-19T02:29:34;17.60;;;3.55;;
25073;SDS011;13066;52.042;5.648;2023-09-19T02:32:02;19.48;;;3.60;;
25073;SDS011;13066;52.042;5.648;2023-09-19T02:34:31;18.15;;;3.22;;
25073;SDS011;13066;52.042;5.648;2023-09-19T02:37:00;19.67;;;3.45;;
25073;SDS011;13066;52.042;5.648;2023-09-19T02:39:31;17.15;;;3.15;;
25073;SDS011;13066;52.042;5.648;2023-09-19T02:41:59;20.63;;;3.30;;
25073;SDS011;13066;52.042;5.648;2023-09-19T02:44:28;15.20;;;3.05;;
25073;SDS011;13066;52.042;5.648;2023-09-19T02:46:56;16.88;;;3.45;;
25073;SDS011;13066;52.042;5.648;2023-09-19T02:49:26;14.95;;;3.40;;
25073;SDS011;13066;52.042;5.648;2023-09-19T02:51:54;13.65;;;3.33;;
25073;SDS011;13066;52.042;5.648;2023-09-19T02:54:23;17.63;;;3.22;;
25073;SDS011;13066;52.042;5.648;2023-09-19T02:56:51;18.02;;;3.78;;
25073;SDS011;13066;52.042;5.648;2023-09-19T02:59:20;17.27;;;3.15;;
25073;SDS011;13066;52.042;5.648;2023-09-19T03:01:48;19.15;;;3.35;;
25073;SDS011;13066;52.042;5.648;2023-09-19T03:04:16;15.55;;;3.17;;
25073;SDS011;13066;52.042;5.648;2023-09-19T03:06:47;14.38;;;3.17;;
25073;SDS011;13066;52.042;5.648;2023-09-19T03:09:18;14.88;;;3.42;;
25073;SDS011;13066;52.042;5.648;2023-09-19T03:11:47;16.60;;;3.38;;
25073;SDS011;13066;52.042;5.648;2023-09-19T03:14:16;16.67;;;3.15;;
25073;SDS011;13066;52.042;5.648;2023-09-19T03:16:47;18.52;;;3.10;;
25073;SDS011;13066;52.042;5.648;2023-09-19T03:19:15;17.65;;;3.00;;
25073;SDS011;13066;52.042;5.648;2023-09-19T03:21:43;16.27;;;3.25;;
25073;SDS011;13066;52.042;5.648;2023-09-19T03:24:12;12.52;;;3.40;;
25073;SDS011;13066;52.042;5.648;2023-09-19T03:26:40;22.55;;;3.08;;
25073;SDS011;13066;52.042;5.648;2023-09-19T03:29:09;19.65;;;3.80;;
25073;SDS011;13066;52.042;5.648;2023-09-19T03:31:37;24.80;;;3.53;;
25073;SDS011;13066;52.042;5.648;2023-09-19T03:34:07;13.63;;;3.05;;
25073;SDS011;13066;52.042;5.648;2023-09-19T03:36:35;14.35;;;3.00;;
25073;SDS011;13066;52.042;5.648;2023-09-19T03:39:03;17.80;;;3.40;;
25073;SDS011;13066;52.042;5.648;2023-09-19T03:41:32;15.30;;;3.75;;
25073;SDS011;13066;52.042;5.648;2023-09-19T03:44:03;15.88;;;2.78;;
25073;SDS011;13066;52.042;5.648;2023-09-19T03:46:34;14.60;;;3.50;;
25073;SDS011;13066;52.042;5.648;2023-09-19T03:49:02;17.02;;;3.15;;
25073;SDS011;13066;52.042;5.648;2023-09-19T03:51:30;18.27;;;3.60;;
25073;SDS011;13066;52.042;5.648;2023-09-19T03:54:00;16.58;;;3.92;;
25073;SDS011;13066;52.042;5.648;2023-09-19T03:56:30;13.77;;;3.10;;
25073;SDS011;13066;52.042;5.648;2023-09-19T03:58:58;17.70;;;3.75;;
25073;SDS011;13066;52.042;5.648;2023-09-19T04:01:26;17.42;;;2.92;;
25073;SDS011;13066;52.042;5.648;2023-09-19T04:03:56;14.50;;;3.10;;
25073;SDS011;13066;52.042;5.648;2023-09-19T04:06:24;12.00;;;3.10;;
25073;SDS011;13066;52.042;5.648;2023-09-19T04:08:53;19.20;;;3.47;;
25073;SDS011;13066;52.042;5.648;2023-09-19T04:11:23;16.73;;;3.08;;
25073;SDS011;13066;52.042;5.648;2023-09-19T04:13:51;23.50;;;3.80;;
25073;SDS011;13066;52.042;5.648;2023-09-19T04:16:20;9.93;;;3.17;;
25073;SDS011;13066;52.042;5.648;2023-09-19T04:18:48;16.35;;;3.45;;
25073;SDS011;13066;52.042;5.648;2023-09-19T04:21:18;16.92;;;3.28;;
25073;SDS011;13066;52.042;5.648;2023-09-19T04:23:46;15.40;;;3.60;;
25073;SDS011;13066;52.042;5.648;2023-09-19T04:26:14;16.00;;;3.50;;
25073;SDS011;13066;52.042;5.648;2023-09-19T04:28:43;19.35;;;3.00;;
25073;SDS011;13066;52.042;5.648;2023-09-19T04:31:12;16.63;;;4.22;;
25073;SDS011;13066;52.042;5.648;2023-09-19T04:33:40;13.80;;;3.33;;
25073;SDS011;13066;52.042;5.648;2023-09-19T04:36:10;14.60;;;3.10;;
25073;SDS011;13066;52.042;5.648;2023-09-19T04:39:01;18.55;;;3.70;;
25073;SDS011;13066;52.042;5.648;2023-09-19T04:41:31;16.08;;;3.10;;
25073;SDS011;13066;52.042;5.648;2023-09-19T04:43:59;12.25;;;2.90;;
25073;SDS011;13066;52.042;5.648;2023-09-19T04:46:27;15.70;;;3.28;;
25073;SDS011;13066;52.042;5.648;2023-09-19T04:48:55;14.27;;;3.55;;
25073;SDS011;13066;52.042;5.648;2023-09-19T04:51:23;14.82;;;3.47;;
25073;SDS011;13066;52.042;5.648;2023-09-19T04:53:52;19.25;;;3.35;;
25073;SDS011;13066;52.042;5.648;2023-09-19T04:56:21;15.90;;;3.55;;
25073;SDS011;13066;52.042;5.648;2023-09-19T04:58:50;22.50;;;3.67;;
25073;SDS011;13066;52.042;5.648;2023-09-19T05:01:18;10.85;;;3.08;;
25073;SDS011;13066;52.042;5.648;2023-09-19T05:03:49;16.88;;;3.13;;
25073;SDS011;13066;52.042;5.648;2023-09-19T05:06:19;12.15;;;3.20;;
25073;SDS011;13066;52.042;5.648;2023-09-19T05:08:48;15.15;;;3.10;;
25073;SDS011;13066;52.042;5.648;2023-09-19T05:11:17;14.90;;;3.03;;
25073;SDS011;13066;52.042;5.648;2023-09-19T05:13:47;16.25;;;2.78;;
25073;SDS011;13066;52.042;5.648;2023-09-19T05:16:16;17.25;;;3.08;;
25073;SDS011;13066;52.042;5.648;2023-09-19T05:18:44;16.15;;;3.65;;
25073;SDS011;13066;52.042;5.648;2023-09-19T05:21:12;15.45;;;3.05;;
25073;SDS011;13066;52.042;5.648;2023-09-19T05:23:40;16.33;;;3.25;;
25073;SDS011;13066;52.042;5.648;2023-09-19T05:26:08;7.75;;;2.60;;
25073;SDS011;13066;52.042;5.648;2023-09-19T05:28:40;12.00;;;3.15;;
25073;SDS011;13066;52.042;5.648;2023-09-19T05:31:10;19.35;;;3.42;;
25073;SDS011;13066;52.042;5.648;2023-09-19T05:33:38;20.95;;;3.60;;
25073;SDS011;13066;52.042;5.648;2023-09-19T05:36:06;13.82;;;3.15;;
25073;SDS011;13066;52.042;5.648;2023-09-19T05:38:38;20.02;;;3.50;;
25073;SDS011;13066;52.042;5.648;2023-09-19T05:41:08;15.18;;;3.15;;
25073;SDS011;13066;52.042;5.648;2023-09-19T05:43:40;19.00;;;2.95;;
25073;SDS011;13066;52.042;5.648;2023-09-19T05:46:10;17.73;;;3.42;;
25073;SDS011;13066;52.042;5.648;2023-09-19T05:48:38;21.23;;;3.33;;
25073;SDS011;13066;52.042;5.648;2023-09-19T05:51:08;16.00;;;3.22;;
25073;SDS011;13066;52.042;5.648;2023-09-19T05:53:36;19.40;;;3.25;;
25073;SDS011;13066;52.042;5.648;2023-09-19T05:56:04;20.42;;;3.70;;
25073;SDS011;13066;52.042;5.648;2023-09-19T05:58:32;17.05;;;3.30;;
25073;SDS011;13066;52.042;5.648;2023-09-19T06:01:00;24.20;;;3.33;;
25073;SDS011;13066;52.042;5.648;2023-09-19T06:03:29;13.55;;;2.80;;
25073;SDS011;13066;52.042;5.648;2023-09-19T06:05:58;19.33;;;3.88;;
25073;SDS011;13066;52.042;5.648;2023-09-19T06:08:26;20.80;;;3.60;;
25073;SDS011;13066;52.042;5.648;2023-09-19T06:10:54;16.73;;;3.55;;
25073;SDS011;13066;52.042;5.648;2023-09-19T06:13:22;16.23;;;3.47;;
25073;SDS011;13066;52.042;5.648;2023-09-19T06:15:54;17.92;;;3.45;;
25073;SDS011;13066;52.042;5.648;2023-09-19T06:18:22;16.40;;;3.30;;
25073;SDS011;13066;52.042;5.648;2023-09-19T06:20:54;15.93;;;3.58;;
25073;SDS011;13066;52.042;5.648;2023-09-19T06:23:22;23.25;;;3.42;;
25073;SDS011;13066;52.042;5.648;2023-09-19T06:25:51;17.55;;;3.45;;
25073;SDS011;13066;52.042;5.648;2023-09-19T06:28:19;23.25;;;3.67;;
25073;SDS011;13066;52.042;5.648;2023-09-19T06:30:50;18.70;;;3.28;;
25073;SDS011;13066;52.042;5.648;2023-09-19T06:33:18;20.27;;;3.45;;
25073;SDS011;13066;52.042;5.648;2023-09-19T06:35:48;13.32;;;3.08;;
25073;SDS011;13066;52.042;5.648;2023-09-19T06:38:20;15.98;;;3.17;;
25073;SDS011;13066;52.042;5.648;2023-09-19T06:40:48;14.38;;;3.47;;
25073;SDS011;13066;52.042;5.648;2023-09-19T06:43:16;20.77;;;3.63;;
25073;SDS011;13066;52.042;5.648;2023-09-19T06:45:45;13.70;;;3.20;;
25073;SDS011;13066;52.042;5.648;2023-09-19T06:48:13;14.00;;;3.20;;
25073;SDS011;13066;52.042;5.648;2023-09-19T06:50:41;12.20;;;3.50;;
25073;SDS011;13066;52.042;5.648;2023-09-19T06:53:10;28.58;;;3.50;;
25073;SDS011;13066;52.042;5.648;2023-09-19T06:55:39;11.88;;;2.90;;
25073;SDS011;13066;52.042;5.648;2023-09-19T06:58:10;13.00;;;3.50;;
25073;SDS011;13066;52.042;5.648;2023-09-19T07:00:38;13.77;;;3.20;;
25073;SDS011;13066;52.042;5.648;2023-09-19T07:03:06;22.30;;;3.13;;
25073;SDS011;13066;52.042;5.648;2023-09-19T07:05:39;16.38;;;3.67;;
25073;SDS011;13066;52.042;5.648;2023-09-19T07:08:08;18.83;;;3.50;;
25073;SDS011;13066;52.042;5.648;2023-09-19T07:10:41;20.27;;;3.85;;
25073;SDS011;13066;52.042;5.648;2023-09-19T07:13:15;19.52;;;3.47;;
25073;SDS011;13066;52.042;5.648;2023-09-19T07:15:44;17.45;;;3.78;;
25073;SDS011;13066;52.042;5.648;2023-09-19T07:18:14;21.92;;;4.00;;
25073;SDS011;13066;52.042;5.648;2023-09-19T07:20:43;19.73;;;3.55;;
25073;SDS011;13066;52.042;5.648;2023-09-19T07:23:15;20.83;;;3.58;;
25073;SDS011;13066;52.042;5.648;2023-09-19T07:25:45;20.13;;;3.30;;
25073;SDS011;13066;52.042;5.648;2023-09-19T07:28:14;23.85;;;4.00;;
25073;SDS011;13066;52.042;5.648;2023-09-19T07:30:42;17.48;;;3.92;;
25073;SDS011;13066;52.042;5.648;2023-09-19T07:33:10;26.67;;;4.13;;
25073;SDS011;13066;52.042;5.648;2023-09-19T07:35:38;25.35;;;3.85;;
25073;SDS011;13066;52.042;5.648;2023-09-19T07:38:07;19.65;;;3.42;;
25073;SDS011;13066;52.042;5.648;2023-09-19T07:40:38;22.70;;;3.60;;
25073;SDS011;13066;52.042;5.648;2023-09-19T07:43:07;14.85;;;3.05;;
25073;SDS011;13066;52.042;5.648;2023-09-19T07:45:35;23.30;;;3.67;;
25073;SDS011;13066;52.042;5.648;2023-09-19T07:48:04;17.63;;;4.13;;
25073;SDS011;13066;52.042;5.648;2023-09-19T07:50:33;18.08;;;4.53;;
25073;SDS011;13066;52.042;5.648;2023-09-19T07:53:03;22.05;;;3.80;;
25073;SDS011;13066;52.042;5.648;2023-09-19T07:55:32;21.00;;;3.42;;
25073;SDS011;13066;52.042;5.648;2023-09-19T07:58:00;14.52;;;3.45;;
25073;SDS011;13066;52.042;5.648;2023-09-19T08:00:31;18.55;;;3.72;;
25073;SDS011;13066;52.042;5.648;2023-09-19T08:03:01;20.35;;;3.55;;
25073;SDS011;13066;52.042;5.648;2023-09-19T08:05:43;18.83;;;3.20;;
25073;SDS011;13066;52.042;5.648;2023-09-19T08:08:12;15.80;;;3.42;;
25073;SDS011;13066;52.042;5.648;2023-09-19T08:10:41;23.55;;;3.70;;
25073;SDS011;13066;52.042;5.648;2023-09-19T08:13:13;20.98;;;3.53;;
25073;SDS011;13066;52.042;5.648;2023-09-19T08:15:44;15.80;;;3.53;;
25073;SDS011;13066;52.042;5.648;2023-09-19T08:18:12;22.73;;;4.05;;
25073;SDS011;13066;52.042;5.648;2023-09-19T08:20:41;14.13;;;3.28;;
25073;SDS011;13066;52.042;5.648;2023-09-19T08:23:12;20.55;;;3.92;;
25073;SDS011;13066;52.042;5.648;2023-09-19T08:25:40;14.18;;;3.20;;
25073;SDS011;13066;52.042;5.648;2023-09-19T08:28:09;16.80;;;3.42;;
25073;SDS011;13066;52.042;5.648;2023-09-19T08:30:39;20.88;;;3.63;;
25073;SDS011;13066;52.042;5.648;2023-09-19T08:33:09;24.73;;;4.15;;
25073;SDS011;13066;52.042;5.648;2023-09-19T08:35:37;20.08;;;4.45;;
25073;SDS011;13066;52.042;5.648;2023-09-19T08:38:06;12.68;;;3.53;;
25073;SDS011;13066;52.042;5.648;2023-09-19T08:40:36;28.35;;;4.20;;
25073;SDS011;13066;52.042;5.648;2023-09-19T08:43:06;18.98;;;3.90;;
25073;SDS011;13066;52.042;5.648;2023-09-19T08:45:35;21.05;;;3.72;;
25073;SDS011;13066;52.042;5.648;2023-09-19T08:48:08;22.13;;;4.00;;
25073;SDS011;13066;52.042;5.648;2023-09-19T08:50:47;24.08;;;3.88;;
25073;SDS011;13066;52.042;5.648;2023-09-19T08:53:20;21.50;;;3.80;;
25073;SDS011;13066;52.042;5.648;2023-09-19T08:55:50;19.83;;;3.47;;
25073;SDS011;13066;52.042;5.648;2023-09-19T08:58:21;14.93;;;3.72;;
25073;SDS011;13066;52.042;5.648;2023-09-19T09:00:52;18.55;;;3.63;;
25073;SDS011;13066;52.042;5.648;2023-09-19T09:03:22;25.10;;;4.15;;
25073;SDS011;13066;52.042;5.648;2023-09-19T09:05:51;20.60;;;4.00;;
25073;SDS011;13066;52.042;5.648;2023-09-19T09:08:19;22.55;;;3.85;;
25073;SDS011;13066;52.042;5.648;2023-09-19T09:10:48;19.25;;;4.07;;
25073;SDS011;13066;52.042;5.648;2023-09-19T09:13:16;17.30;;;3.60;;
25073;SDS011;13066;52.042;5.648;2023-09-19T09:15:45;15.18;;;3.58;;
25073;SDS011;13066;52.042;5.648;2023-09-19T09:18:14;15.32;;;3.22;;
25073;SDS011;13066;52.042;5.648;2023-09-19T09:20:44;19.45;;;4.03;;
25073;SDS011;13066;52.042;5.648;2023-09-19T09:23:14;24.27;;;4.32;;
25073;SDS011;13066;52.042;5.648;2023-09-19T09:25:49;15.13;;;3.45;;
25073;SDS011;13066;52.042;5.648;2023-09-19T09:28:21;17.65;;;3.30;;
25073;SDS011;13066;52.042;5.648;2023-09-19T09:30:50;17.00;;;3.38;;
25073;SDS011;13066;52.042;5.648;2023-09-19T09:33:18;14.38;;;3.00;;
25073;SDS011;13066;52.042;5.648;2023-09-19T09:35:49;21.63;;;3.70;;
25073;SDS011;13066;52.042;5.648;2023-09-19T09:38:23;12.50;;;3.13;;
25073;SDS011;13066;52.042;5.648;2023-09-19T09:40:55;18.92;;;3.05;;
25073;SDS011;13066;52.042;5.648;2023-09-19T09:43:29;21.17;;;3.90;;
25073;SDS011;13066;52.042;5.648;2023-09-19T09:46:09;17.90;;;3.43;;
25073;SDS011;13066;52.042;5.648;2023-09-19T09:49:11;16.73;;;3.60;;
25073;SDS011;13066;52.042;5.648;2023-09-19T09:51:44;16.40;;;3.42;;
25073;SDS011;13066;52.042;5.648;2023-09-19T09:54:24;23.58;;;3.92;;
25073;SDS011;13066;52.042;5.648;2023-09-19T09:57:00;14.07;;;2.97;;
25073;SDS011;13066;52.042;5.648;2023-09-19T09:59:47;21.70;;;3.90;;
25073;SDS011;13066;52.042;5.648;2023-09-19T10:02:17;16.65;;;3.38;;
25073;SDS011;13066;52.042;5.648;2023-09-19T10:04:51;16.58;;;3.67;;
25073;SDS011;13066;52.042;5.648;2023-09-19T10:07:28;13.93;;;3.38;;
25073;SDS011;13066;52.042;5.648;2023-09-19T10:10:02;23.92;;;4.03;;
25073;SDS011;13066;52.042;5.648;2023-09-19T10:12:43;13.02;;;3.80;;
25073;SDS011;13066;52.042;5.648;2023-09-19T10:15:15;23.63;;;3.28;;
25073;SDS011;13066;52.042;5.648;2023-09-19T10:17:47;20.10;;;4.05;;
25073;SDS011;13066;52.042;5.648;2023-09-19T10:20:16;17.73;;;3.17;;
25073;SDS011;13066;52.042;5.648;2023-09-19T10:23:03;16.80;;;3.05;;
25073;SDS011;13066;52.042;5.648;2023-09-19T10:25:36;16.00;;;3.42;;
25073;SDS011;13066;52.042;5.648;2023-09-19T10:28:05;10.20;;;2.95;;
25073;SDS011;13066;52.042;5.648;2023-09-19T10:30:40;17.93;;;3.47;;
25073;SDS011;13066;52.042;5.648;2023-09-19T10:33:11;13.13;;;2.65;;
25073;SDS011;13066;52.042;5.648;2023-09-19T10:35:40;16.83;;;3.00;;
25073;SDS011;13066;52.042;5.648;2023-09-19T10:38:12;13.45;;;2.95;;
25073;SDS011;13066;52.042;5.648;2023-09-19T10:40:44;14.27;;;3.13;;
25073;SDS011;13066;52.042;5.648;2023-09-19T10:43:18;15.85;;;2.83;;
25073;SDS011;13066;52.042;5.648;2023-09-19T10:45:48;21.00;;;2.95;;
25073;SDS011;13066;52.042;5.648;2023-09-19T10:48:19;16.48;;;3.45;;
25073;SDS011;13066;52.042;5.648;2023-09-19T10:50:53;13.75;;;3.15;;
25073;SDS011;13066;52.042;5.648;2023-09-19T10:53:28;15.63;;;2.92;;
25073;SDS011;13066;52.042;5.648;2023-09-19T10:55:59;16.10;;;3.15;;
25073;SDS011;13066;52.042;5.648;2023-09-19T10:58:29;15.15;;;2.92;;
25073;SDS011;13066;52.042;5.648;2023-09-19T11:01:04;14.77;;;3.20;;
25073;SDS011;13066;52.042;5.648;2023-09-19T11:03:38;14.55;;;2.70;;
25073;SDS011;13066;52.042;5.648;2023-09-19T11:06:11;10.32;;;2.53;;
25073;SDS011;13066;52.042;5.648;2023-09-19T11:08:52;15.80;;;3.10;;
25073;SDS011;13066;52.042;5.648;2023-09-19T11:11:39;13.35;;;2.70;;
25073;SDS011;13066;52.042;5.648;2023-09-19T11:14:16;13.95;;;2.97;;
25073;SDS011;13066;52.042;5.648;2023-09-19T11:20:18;12.77;;;2.78;;
25073;SDS011;13066;52.042;5.648;2023-09-19T11:23:18;15.07;;;2.83;;
25073;SDS011;13066;52.042;5.648;2023-09-19T11:25:56;14.65;;;2.97;;
25073;SDS011;13066;52.042;5.648;2023-09-19T11:28:28;13.02;;;2.63;;
25073;SDS011;13066;52.042;5.648;2023-09-19T11:40:11;15.82;;;2.60;;
25073;SDS011;13066;52.042;5.648;2023-09-19T11:42:45;14.25;;;2.90;;
25073;SDS011;13066;52.042;5.648;2023-09-19T11:48:38;12.15;;;2.58;;
25073;SDS011;13066;52.042;5.648;2023-09-19T11:51:17;10.98;;;2.25;;
25073;SDS011;13066;52.042;5.648;2023-09-19T11:53:49;10.82;;;2.47;;
25073;SDS011;13066;52.042;5.648;2023-09-19T11:56:18;12.75;;;2.53;;
25073;SDS011;13066;52.042;5.648;2023-09-19T11:58:50;10.27;;;2.78;;
25073;SDS011;13066;52.042;5.648;2023-09-19T12:01:21;10.85;;;2.60;;
25073;SDS011;13066;52.042;5.648;2023-09-19T12:03:54;15.63;;;2.35;;
25073;SDS011;13066;52.042;5.648;2023-09-19T12:06:24;13.23;;;2.42;;
25073;SDS011;13066;52.042;5.648;2023-09-19T12:08:53;10.75;;;2.42;;
25073;SDS011;13066;52.042;5.648;2023-09-19T12:11:21;11.98;;;2.45;;
25073;SDS011;13066;52.042;5.648;2023-09-19T12:13:52;9.45;;;2.15;;
25073;SDS011;13066;52.042;5.648;2023-09-19T12:16:24;10.15;;;2.47;;
25073;SDS011;13066;52.042;5.648;2023-09-19T12:18:52;8.38;;;2.17;;
25073;SDS011;13066;52.042;5.648;2023-09-19T12:21:24;15.50;;;2.63;;
25073;SDS011;13066;52.042;5.648;2023-09-19T12:26:39;10.98;;;2.15;;
25073;SDS011;13066;52.042;5.648;2023-09-19T12:29:13;11.68;;;2.10;;
25073;SDS011;13066;52.042;5.648;2023-09-19T12:31:47;5.93;;;1.90;;
25073;SDS011;13066;52.042;5.648;2023-09-19T12:34:21;6.85;;;2.08;;
25073;SDS011;13066;52.042;5.648;2023-09-19T12:37:03;12.07;;;1.80;;
25073;SDS011;13066;52.042;5.648;2023-09-19T12:39:40;7.07;;;1.93;;
25073;SDS011;13066;52.042;5.648;2023-09-19T12:42:10;9.20;;;1.90;;
25073;SDS011;13066;52.042;5.648;2023-09-19T12:44:44;9.77;;;1.85;;
25073;SDS011;13066;52.042;5.648;2023-09-19T12:47:14;9.05;;;1.80;;
25073;SDS011;13066;52.042;5.648;2023-09-19T12:52:45;10.40;;;2.35;;
25073;SDS011;13066;52.042;5.648;2023-09-19T12:55:19;9.25;;;2.28;;
25073;SDS011;13066;52.042;5.648;2023-09-19T12:57:55;7.13;;;1.70;;
25073;SDS011;13066;52.042;5.648;2023-09-19T13:00:34;5.90;;;1.98;;
25073;SDS011;13066;52.042;5.648;2023-09-19T13:03:13;8.27;;;1.95;;
25073;SDS011;13066;52.042;5.648;2023-09-19T13:05:49;10.68;;;2.10;;
25073;SDS011;13066;52.042;5.648;2023-09-19T13:08:25;6.03;;;2.20;;
25073;SDS011;13066;52.042;5.648;2023-09-19T13:11:02;7.72;;;1.83;;
25073;SDS011;13066;52.042;5.648;2023-09-19T13:13:37;13.73;;;1.83;;
25073;SDS011;13066;52.042;5.648;2023-09-19T13:16:15;8.30;;;2.00;;
25073;SDS011;13066;52.042;5.648;2023-09-19T13:18:47;8.57;;;1.80;;
25073;SDS011;13066;52.042;5.648;2023-09-19T13:21:26;13.23;;;1.70;;
25073;SDS011;13066;52.042;5.648;2023-09-19T13:23:55;10.50;;;2.10;;
25073;SDS011;13066;52.042;5.648;2023-09-19T13:26:26;6.97;;;1.67;;
25073;SDS011;13066;52.042;5.648;2023-09-19T13:28:54;9.30;;;2.00;;
25073;SDS011;13066;52.042;5.648;2023-09-19T13:31:24;11.52;;;2.53;;
25073;SDS011;13066;52.042;5.648;2023-09-19T13:33:52;6.63;;;1.80;;
25073;SDS011;13066;52.042;5.648;2023-09-19T13:36:20;12.55;;;2.45;;
25073;SDS011;13066;52.042;5.648;2023-09-19T13:38:47;8.88;;;1.98;;
25073;SDS011;13066;52.042;5.648;2023-09-19T13:41:16;7.93;;;1.75;;
25073;SDS011;13066;52.042;5.648;2023-09-19T13:43:44;9.88;;;1.63;;
25073;SDS011;13066;52.042;5.648;2023-09-19T13:46:15;4.80;;;1.60;;
25073;SDS011;13066;52.042;5.648;2023-09-19T13:48:45;6.47;;;1.65;;
25073;SDS011;13066;52.042;5.648;2023-09-19T13:51:13;4.68;;;1.63;;
25073;SDS011;13066;52.042;5.648;2023-09-19T13:53:41;5.25;;;1.58;;
25073;SDS011;13066;52.042;5.648;2023-09-19T13:56:10;5.95;;;1.60;;
25073;SDS011;13066;52.042;5.648;2023-09-19T13:58:38;3.28;;;1.38;;
25073;SDS011;13066;52.042;5.648;2023-09-19T14:01:09;6.30;;;1.75;;
25073;SDS011;13066;52.042;5.648;2023-09-19T14:03:39;6.15;;;2.10;;
25073;SDS011;13066;52.042;5.648;2023-09-19T14:06:14;6.10;;;1.50;;
25073;SDS011;13066;52.042;5.648;2023-09-19T14:08:42;6.97;;;1.58;;
25073;SDS011;13066;52.042;5.648;2023-09-19T14:11:11;7.13;;;1.88;;
25073;SDS011;13066;52.042;5.648;2023-09-19T14:13:39;5.72;;;1.70;;
25073;SDS011;13066;52.042;5.648;2023-09-19T14:16:07;3.95;;;1.45;;
25073;SDS011;13066;52.042;5.648;2023-09-19T14:18:36;7.53;;;1.85;;
25073;SDS011;13066;52.042;5.648;2023-09-19T14:21:04;7.55;;;1.50;;
25073;SDS011;13066;52.042;5.648;2023-09-19T14:23:35;5.30;;;1.60;;
25073;SDS011;13066;52.042;5.648;2023-09-19T14:26:04;5.60;;;1.52;;
25073;SDS011;13066;52.042;5.648;2023-09-19T14:28:32;8.80;;;1.80;;
25073;SDS011;13066;52.042;5.648;2023-09-19T14:31:05;7.72;;;1.42;;
25073;SDS011;13066;52.042;5.648;2023-09-19T14:33:33;8.05;;;1.92;;
25073;SDS011;13066;52.042;5.648;2023-09-19T14:36:04;6.63;;;1.70;;
25073;SDS011;13066;52.042;5.648;2023-09-19T14:38:37;7.50;;;1.88;;
25073;SDS011;13066;52.042;5.648;2023-09-19T14:41:06;4.90;;;1.70;;
25073;SDS011;13066;52.042;5.648;2023-09-19T14:43:35;31.08;;;9.05;;
25073;SDS011;13066;52.042;5.648;2023-09-19T14:46:03;9.05;;;2.13;;
25073;SDS011;13066;52.042;5.648;2023-09-19T14:48:31;9.85;;;2.67;;
25073;SDS011;13066;52.042;5.648;2023-09-19T14:51:01;8.73;;;1.98;;
25073;SDS011;13066;52.042;5.648;2023-09-19T14:53:30;8.95;;;2.33;;
25073;SDS011;13066;52.042;5.648;2023-09-19T14:56:01;15.13;;;2.55;;
25073;SDS011;13066;52.042;5.648;2023-09-19T14:58:30;16.63;;;3.20;;
25073;SDS011;13066;52.042;5.648;2023-09-19T15:01:05;6.53;;;1.80;;
25073;SDS011;13066;52.042;5.648;2023-09-19T15:03:34;5.95;;;1.95;;
25073;SDS011;13066;52.042;5.648;2023-09-19T15:06:02;9.57;;;2.17;;
25073;SDS011;13066;52.042;5.648;2023-09-19T15:08:32;10.63;;;1.88;;
25073;SDS011;13066;52.042;5.648;2023-09-19T15:11:03;10.25;;;2.30;;
25073;SDS011;13066;52.042;5.648;2023-09-19T15:13:32;7.95;;;2.22;;
25073;SDS011;13066;52.042;5.648;2023-09-19T15:16:00;6.00;;;1.73;;
25073;SDS011;13066;52.042;5.648;2023-09-19T15:18:28;9.93;;;2.22;;
25073;SDS011;13066;52.042;5.648;2023-09-19T15:21:00;5.82;;;2.05;;